Архив погоды в Туапсе

Метеограмма Туапсе
Воскресенье, 19 Мая
Время местн. Темп Ветер Видим Явления Облачность нижн/средн/верх Атм. давл. Влжн Точка росы ВНГО R Сост. почвы Tg s
Напр Скр Прв ур.ст ур.м изм
12:00 +18.1° В,Ю-В 3 - 4 км слабый ливневый дождь облачно 753 759 +1.4 91% +16.6° 1 км - - - -
09:00 +19.4° Ю-В 5 - 20 км - облачно 752 757 +1.8 84% +16.6° 1 км - - - -
06:00 +19.6° штиль 0 - 20 км - облачно 750 755 +0.5 84% +16.8° 1.5 км - Влажная (без луж) - -
03:00 +19.6° Ю-В 3 - 10 км - облачно 750 755 +1.4 84% +16.9° 1.5 км - - - -
00:00 +21.6° В 1 - 10 км - облачно 748 754 +0.1 69% +15.7° 1.5 км - - - -
Суббота, 18 Мая
Время местн. Темп Ветер Видим Явления Облачность нижн/средн/верх Атм. давл. Влжн Точка росы ВНГО R Сост. почвы Tg s
Напр Скр Прв ур.ст ур.м изм
21:00 +23.1° З,С-З 2 - 10 км - облачно 748 753 +2 62% +15.5° 1.5 км - - - -
18:00 +29.5° С-В 4 12 20 км - преимущественно облачно 746 751 -2.2 40% +14.5° более 2.5 км - - - -
15:00 +30.3° З 2 - 20 км - ясно 748 754 -0.8 36% +13.4° более 2.5 км - - - -
12:00 +30.2° Ю-З 2 - 20 км - переменная облачность 749 754 0 37% +13.9° 1.5 км - - - -
09:00 +27.3° В 1 - 20 км - преимущественно облачно 749 754 -0.6 47% +15.1° 1.5 км - - - -
06:00 +19.9° В,С-В 1 - 20 км - облачно 750 755 +0.2 67% +13.6° 1.5 км - Влажная (без луж) - -
03:00 +20.1° С-В 3 - 10 км - облачно с прояснениями 750 755 -1.4 69% +14.3° 1.5 км - - - -
00:00 +19.1° Ю 2 - 10 км - переменная облачность 751 756 +1 77% +14.9° 1.5 км - - - -
Пятница, 17 Мая
Время местн. Темп Ветер Видим Явления Облачность нижн/средн/верх Атм. давл. Влжн Точка росы ВНГО R Сост. почвы Tg s
Напр Скр Прв ур.ст ур.м изм
21:00 +27.2° С-В 3 - 10 км - ясно 750 755 -0.8 41% +12.8° более 2.5 км - - - -
18:00 +28.5° З 1 - 20 км - переменная облачность 751 756 -1.7 39% +13.2° более 2.5 км - - - -
15:00 +28.3° Ю-З 1 - 20 км - переменная облачность 753 758 -1.7 37% +12.2° более 2.5 км - - - -
12:00 +23.8° Ю 1 - 20 км - облачно с прояснениями 754 760 -0.2 57% +14.7° более 2.5 км - - - -
09:00 +20° Ю-В 5 10 20 км - облачно с прояснениями 754 760 +1.1 66% +13.5° более 2.5 км - - - -
06:00 +17.8° В 2 - 20 км - преимущественно облачно 753 759 +0.6 75% +13.4° более 2.5 км - Влажная (без луж) - -
03:00 +17.6° Ю 1 - 10 км - переменная облачность 753 758 +0.2 72% +12.5° более 2.5 км - - - -
00:00 +18° С,С-В 2 - 10 км - переменная облачность 753 758 +0.5 63% +10.8° более 2.5 км - - - -
Четверг, 16 Мая
Время местн. Темп Ветер Видим Явления Облачность нижн/средн/верх Атм. давл. Влжн Точка росы ВНГО R Сост. почвы Tg s
Напр Скр Прв ур.ст ур.м изм
21:00 +19.8° штиль 0 - 10 км - переменная облачность 752 758 +0.3 55% +10.4° более 2.5 км - - - -
18:00 +24.1° Ю,Ю-З 1 - 20 км - переменная облачность 752 757 -0.8 39% +9.4° более 2.5 км - - - -
15:00 +26.3° Ю-З 3 - 20 км - переменная облачность 753 758 -0.8 50% +14.9° более 2.5 км - - - -
12:00 +24.8° Ю,Ю-З 1 - 20 км - переменная облачность 753 759 -0.5 57% +15.7° более 2.5 км - - - -
09:00 +21.6° Ю-З 2 - 20 км - переменная облачность 754 759 +0.3 66% +15° более 2.5 км - - - -